Time;durP1;ratioP1;P1;durP2;ratioP2;P2;SDS_P1;SDS_P2;PMS_P1;PMS_P2;Temp;Humidity;BMP_temperature;BMP_pressure;BME280_temperature;BME280_humidity;BME280_pressure;Samples;Min_cycle;Max_cycle;Signal;HPM_P1;HPM_P2
2023/04/26 00:03:33;;;;;;;2.47;1.42;;;20.30;57.20;;;;;;10571699;28;20671;-25
2023/04/26 00:08:35;;;;;;;1.60;1.05;;;20.30;57.30;;;;;;10557487;28;20147;-25
2023/04/26 00:13:37;;;;;;;2.47;1.30;;;20.20;57.20;;;;;;10567042;28;20054;-24
2023/04/26 00:18:40;;;;;;;3.45;1.20;;;20.20;57.40;;;;;;10558745;28;20445;-24
2023/04/26 00:23:43;;;;;;;2.35;1.15;;;20.10;57.40;;;;;;10563258;28;20047;-23
2023/04/26 00:28:45;;;;;;;2.60;1.58;;;20.10;57.40;;;;;;10553551;28;20604;-24
2023/04/26 00:33:48;;;;;;;3.05;1.10;;;20.00;57.40;;;;;;10564593;28;20512;-23
2023/04/26 00:38:50;;;;;;;4.18;1.20;;;20.00;57.40;;;;;;10564380;28;20135;-25
2023/04/26 00:43:52;;;;;;;2.67;0.95;;;20.00;57.50;;;;;;10574014;28;20055;-25
2023/04/26 00:48:56;;;;;;;3.15;1.17;;;20.00;57.50;;;;;;10568930;28;20135;-25
2023/04/26 00:53:58;;;;;;;2.10;0.90;;;20.00;57.50;;;;;;10565457;28;20067;-25
2023/04/26 00:59:00;;;;;;;1.75;1.10;;;19.90;57.50;;;;;;10577234;28;20126;-25
2023/04/26 01:04:04;;;;;;;2.03;1.20;;;19.80;57.40;;;;;;10570375;28;20061;-23
2023/04/26 01:09:08;;;;;;;2.13;1.00;;;19.90;57.40;;;;;;10578929;28;20050;-25
2023/04/26 01:14:10;;;;;;;2.95;1.20;;;19.80;57.50;;;;;;10577557;28;20079;-24
2023/04/26 01:19:14;;;;;;;3.28;1.30;;;19.80;57.60;;;;;;10576309;28;20058;-24
2023/04/26 01:24:17;;;;;;;3.38;1.00;;;19.70;57.50;;;;;;10563096;28;20050;-24
2023/04/26 01:29:20;;;;;;;1.85;1.02;;;19.70;57.50;;;;;;10566727;28;20071;-24
2023/04/26 01:34:22;;;;;;;3.53;1.10;;;19.70;57.50;;;;;;10577195;28;20101;-24
2023/04/26 01:39:25;;;;;;;2.03;0.85;;;19.60;57.60;;;;;;10569160;28;20048;-24
2023/04/26 01:44:27;;;;;;;2.92;1.02;;;19.60;57.40;;;;;;10557253;28;20098;-24
2023/04/26 01:49:29;;;;;;;1.13;0.80;;;19.60;57.40;;;;;;10561190;28;20561;-25
2023/04/26 01:54:32;;;;;;;1.80;0.73;;;19.60;57.50;;;;;;10560771;28;20044;-25
2023/04/26 01:59:34;;;;;;;1.50;0.90;;;19.60;57.50;;;;;;10566721;28;20048;-24
2023/04/26 02:04:36;;;;;;;2.03;0.80;;;19.50;57.50;;;;;;10544017;28;20049;-24
2023/04/26 02:09:40;;;;;;;1.60;0.75;;;19.50;58.00;;;;;;10561239;28;20119;-24
2023/04/26 02:14:42;;;;;;;3.53;1.20;;;19.50;57.40;;;;;;10566216;28;20094;-24
2023/04/26 02:19:44;;;;;;;1.48;0.60;;;19.40;57.50;;;;;;10562603;28;20121;-24
2023/04/26 02:24:47;;;;;;;1.83;0.80;;;19.40;57.40;;;;;;10545023;28;20139;-24
2023/04/26 02:29:49;;;;;;;1.13;0.65;;;19.40;57.40;;;;;;10552815;28;20044;-25
2023/04/26 02:34:51;;;;;;;;;;;19.40;57.40;;;;;;10549407;28;20515;-24
2023/04/26 02:39:54;;;;;;;3.20;0.88;;;19.40;57.40;;;;;;10567275;28;19974;-24
2023/04/26 02:44:56;;;;;;;1.95;0.90;;;19.30;57.40;;;;;;10561975;28;20055;-25
2023/04/26 02:49:58;;;;;;;2.05;0.82;;;19.30;57.40;;;;;;10551485;28;20121;-25
2023/04/26 02:55:02;;;;;;;1.10;0.63;;;19.30;57.50;;;;;;10549817;28;20103;-25
2023/04/26 03:00:06;;;;;;;2.53;0.88;;;19.20;57.40;;;;;;10574845;28;20322;-23
2023/04/26 03:05:09;;;;;;;3.00;1.30;;;19.30;57.40;;;;;;10535931;28;20056;-25
2023/04/26 03:10:12;;;;;;;0.70;0.60;;;19.20;57.20;;;;;;10548537;28;20067;-25
2023/04/26 03:15:14;;;;;;;0.85;0.70;;;19.20;57.40;;;;;;10550527;28;20039;-25
2023/04/26 03:20:16;;;;;;;1.75;0.60;;;19.20;57.40;;;;;;10562457;28;20048;-24
2023/04/26 03:25:20;;;;;;;0.60;0.40;;;19.10;57.40;;;;;;10564093;28;20092;-25
2023/04/26 03:30:22;;;;;;;0.82;0.70;;;19.10;57.40;;;;;;10565957;28;20438;-24
2023/04/26 03:35:23;;;;;;;1.27;0.60;;;19.20;57.20;;;;;;10548185;28;20580;-24
2023/04/26 03:40:27;;;;;;;1.52;0.70;;;19.10;57.30;;;;;;10564330;28;20122;-25
2023/04/26 03:45:29;;;;;;;1.13;0.60;;;19.10;57.30;;;;;;10573199;28;20087;-24
2023/04/26 03:50:31;;;;;;;1.48;0.70;;;19.10;57.20;;;;;;10570710;28;20718;-24
2023/04/26 03:55:34;;;;;;;0.52;0.50;;;19.10;57.20;;;;;;10573346;28;20116;-25
2023/04/26 04:00:38;;;;;;;0.65;0.60;;;19.00;57.20;;;;;;10552896;28;20067;-24
2023/04/26 04:05:39;;;;;;;0.88;0.43;;;19.00;57.20;;;;;;10578025;28;20159;-24
2023/04/26 04:10:43;;;;;;;1.58;0.60;;;19.00;57.20;;;;;;10570982;28;20071;-25
2023/04/26 04:15:45;;;;;;;2.10;0.60;;;19.00;56.80;;;;;;10570675;28;20135;-24
2023/04/26 04:20:47;;;;;;;1.40;0.50;;;19.10;56.00;;;;;;10574459;28;20074;-23
2023/04/26 04:25:51;;;;;;;1.38;0.60;;;19.20;55.80;;;;;;10570302;28;20495;-25
2023/04/26 04:30:53;;;;;;;1.17;0.57;;;19.10;56.00;;;;;;10573592;28;20058;-24
2023/04/26 04:35:55;;;;;;;2.47;1.05;;;19.10;55.50;;;;;;10552505;28;20040;-24
2023/04/26 04:40:58;;;;;;;1.63;0.50;;;19.10;56.20;;;;;;10552709;28;20135;-25
2023/04/26 04:46:00;;;;;;;1.13;0.50;;;19.20;56.30;;;;;;10554516;28;20074;-25
2023/04/26 04:51:02;;;;;;;0.52;0.40;;;19.20;56.40;;;;;;10548323;28;20126;-24
2023/04/26 04:56:06;;;;;;;0.55;0.32;;;19.20;56.40;;;;;;10547707;28;20067;-23
2023/04/26 05:01:08;;;;;;;1.00;0.47;;;19.30;56.20;;;;;;10570645;28;20500;-24
2023/04/26 05:06:10;;;;;;;2.13;0.50;;;19.30;56.20;;;;;;10575196;28;20484;-24
2023/04/26 05:11:13;;;;;;;0.80;0.52;;;19.20;56.50;;;;;;10579245;28;20074;-24
2023/04/26 05:16:15;;;;;;;2.00;0.70;;;19.30;56.60;;;;;;10561958;28;20046;-25
2023/04/26 05:21:17;;;;;;;4.53;0.60;;;19.30;56.30;;;;;;10563196;28;20136;-25
2023/04/26 05:26:20;;;;;;;1.95;0.55;;;19.30;56.10;;;;;;10564093;28;20139;-25
2023/04/26 05:31:23;;;;;;;1.88;0.50;;;19.40;56.30;;;;;;10557430;28;20133;-24
2023/04/26 05:36:25;;;;;;;1.77;0.50;;;19.20;56.80;;;;;;10569583;28;20424;-24
2023/04/26 05:41:30;;;;;;;11.13;0.88;;;18.80;55.80;;;;;;10562405;28;20495;-25
2023/04/26 05:46:32;;;;;;;1.73;0.55;;;18.30;59.00;;;;;;10560789;28;20135;-23
2023/04/26 05:51:34;;;;;;;3.33;0.40;;;19.10;57.10;;;;;;10567645;28;20127;-24
2023/04/26 05:56:38;;;;;;;5.68;0.60;;;18.90;57.90;;;;;;10553212;28;20063;-25
2023/04/26 06:01:40;;;;;;;2.53;0.60;;;18.50;52.00;;;;;;10543261;28;20134;-25
2023/04/26 06:06:42;;;;;;;2.17;0.75;;;18.90;57.70;;;;;;10559505;28;20131;-26
2023/04/26 06:11:45;;;;;;;2.17;0.63;;;18.90;57.40;;;;;;10556053;28;20093;-24
2023/04/26 06:16:47;;;;;;;2.35;0.55;;;19.00;57.60;;;;;;10554766;28;20050;-24
2023/04/26 06:21:50;;;;;;;2.95;0.60;;;18.80;57.90;;;;;;10570493;28;20556;-25
2023/04/26 06:26:54;;;;;;;3.25;0.70;;;19.00;57.10;;;;;;10552539;28;20138;-24
2023/04/26 06:31:55;;;;;;;2.22;0.57;;;19.00;57.40;;;;;;10560499;28;20075;-24
2023/04/26 06:36:58;;;;;;;2.85;0.60;;;19.00;56.90;;;;;;10556108;28;20594;-23
2023/04/26 06:42:01;;;;;;;2.42;0.95;;;18.90;57.20;;;;;;10550941;28;20590;-25
2023/04/26 06:47:05;;;;;;;3.50;1.52;;;18.30;56.90;;;;;;10557159;28;20066;-24
2023/04/26 06:52:07;;;;;;;3.70;0.57;;;18.80;57.20;;;;;;10548472;28;20130;-23
2023/04/26 06:57:10;;;;;;;3.22;0.70;;;18.30;55.00;;;;;;10553739;28;20048;-24
2023/04/26 07:02:12;;;;;;;2.35;0.63;;;18.60;58.20;;;;;;10572575;28;20071;-24
2023/04/26 07:07:15;;;;;;;3.08;0.80;;;18.60;56.00;;;;;;10557780;28;20079;-24
2023/04/26 07:12:18;;;;;;;1.75;0.80;;;15.80;51.40;;;;;;10558396;28;20052;-24
2023/04/26 07:17:21;;;;;;;2.60;0.90;;;18.00;60.20;;;;;;10554520;28;20093;-24
2023/04/26 07:22:24;;;;;;;2.22;0.75;;;18.00;59.60;;;;;;10564364;28;20480;-24
2023/04/26 07:27:27;;;;;;;;;;;18.20;58.60;;;;;;10556943;28;20070;-24
2023/04/26 07:32:29;;;;;;;1.42;0.60;;;18.80;57.20;;;;;;10561324;28;19924;-24
2023/04/26 07:37:31;;;;;;;2.13;0.93;;;18.80;57.10;;;;;;10557859;28;20389;-25
2023/04/26 07:42:34;;;;;;;2.63;1.10;;;18.90;56.40;;;;;;10560236;28;20055;-25
2023/04/26 07:47:37;;;;;;;3.05;0.60;;;18.50;58.70;;;;;;10552420;28;20094;-25
2023/04/26 07:52:39;;;;;;;3.42;1.20;;;19.00;52.80;;;;;;10560823;28;20043;-25
2023/04/26 07:57:42;;;;;;;2.55;1.40;;;18.50;58.30;;;;;;10539220;28;20139;-25
2023/04/26 08:02:45;;;;;;;2.35;0.98;;;18.80;57.10;;;;;;10555871;28;20048;-25
2023/04/26 08:07:47;;;;;;;1.70;0.80;;;18.70;57.80;;;;;;10556829;28;20044;-25
2023/04/26 08:12:50;;;;;;;3.38;1.90;;;18.00;62.30;;;;;;10555819;28;20058;-24
2023/04/26 08:17:52;;;;;;;5.38;2.20;;;19.20;58.40;;;;;;10570267;28;20377;-23
2023/04/26 08:22:56;;;;;;;3.47;0.93;;;18.80;58.60;;;;;;10548304;28;20055;-23
2023/04/26 08:27:59;;;;;;;3.78;0.93;;;16.30;50.40;;;;;;10550512;28;20559;-22
2023/04/26 08:33:01;;;;;;;3.53;1.88;;;17.70;53.00;;;;;;10566183;28;20148;-23
2023/04/26 08:38:03;;;;;;;4.53;2.00;;;17.40;64.60;;;;;;10545419;28;20124;-24
2023/04/26 08:43:09;;;;;;;3.13;0.82;;;18.30;60.80;;;;;;10549154;28;20445;-23
2023/04/26 08:48:14;;;;;;;4.90;1.33;;;15.30;52.50;;;;;;10555365;28;20395;-24
2023/04/26 08:53:17;;;;;;;4.15;1.42;;;15.70;71.30;;;;;;10570269;28;20859;-23
2023/04/26 08:58:21;;;;;;;3.67;1.42;;;18.00;62.50;;;;;;10572002;28;20075;-24
2023/04/26 09:03:25;;;;;;;10.35;2.63;;;17.60;60.90;;;;;;10576343;28;20122;-23
2023/04/26 09:08:27;;;;;;;4.35;1.98;;;17.50;64.50;;;;;;10577903;28;20055;-24
2023/04/26 09:13:30;;;;;;;2.42;1.13;;;17.20;66.90;;;;;;10577445;28;20127;-25
2023/04/26 09:18:32;;;;;;;3.53;1.30;;;18.00;62.10;;;;;;10576603;28;20040;-24
2023/04/26 09:23:35;;;;;;;3.47;0.82;;;16.70;54.80;;;;;;10577647;28;20048;-24
2023/04/26 09:28:38;;;;;;;2.05;1.02;;;16.90;66.80;;;;;;10576873;28;20089;-24
2023/04/26 09:33:58;;;;;;;2.20;0.82;;;16.90;58.80;;;;;;10576867;28;20541;-24
2023/04/26 09:39:00;;;;;;;4.78;0.85;;;17.80;57.20;;;;;;10567507;28;20047;-24
2023/04/26 09:44:03;;;;;;;3.15;0.75;;;18.50;55.00;;;;;;10576043;28;20059;-24
2023/04/26 09:49:06;;;;;;;1.83;0.80;;;16.80;60.40;;;;;;10560899;28;20158;-24
2023/04/26 09:54:08;;;;;;;4.28;0.63;;;18.80;58.80;;;;;;10565580;28;20040;-24
2023/04/26 09:59:11;;;;;;;4.03;0.55;;;18.10;58.60;;;;;;10577118;28;20082;-24
2023/04/26 10:04:13;;;;;;;5.57;1.15;;;18.90;58.50;;;;;;10569290;28;20139;-23
2023/04/26 10:09:15;;;;;;;1.80;0.47;;;17.80;60.10;;;;;;10559675;28;20124;-23
2023/04/26 10:14:18;;;;;;;1.33;0.60;;;18.70;59.20;;;;;;10560957;28;20046;-23
2023/04/26 10:19:21;;;;;;;1.67;0.63;;;17.90;59.40;;;;;;10569375;28;20468;-23
2023/04/26 10:24:24;;;;;;;3.08;0.80;;;15.90;62.50;;;;;;10562757;28;20559;-24
2023/04/26 10:29:47;;;;;;;0.80;0.50;;;17.10;61.50;;;;;;10575329;28;20566;-24
2023/04/26 10:35:10;;;;;;;2.40;0.50;;;17.50;65.20;;;;;;10561039;28;20087;-24
2023/04/26 10:40:24;;;;;;;4.43;0.60;;;17.20;67.20;;;;;;10559598;28;20075;-23
2023/04/26 10:45:27;;;;;;;4.30;0.60;;;16.30;69.90;;;;;;10563846;28;20055;-24
2023/04/26 10:50:31;;;;;;;2.55;0.70;;;18.10;60.30;;;;;;10550698;28;20104;-24
2023/04/26 10:55:39;;;;;;;4.25;0.90;;;16.60;50.00;;;;;;10552482;28;20075;-24
2023/04/26 11:00:41;;;;;;;3.97;0.85;;;16.10;66.00;;;;;;10562731;28;20048;-24
2023/04/26 11:05:54;;;;;;;3.42;0.82;;;15.50;75.40;;;;;;10558268;28;20084;-24
2023/04/26 11:11:07;;;;;;;1.75;0.55;;;14.10;61.80;;;;;;10569580;28;20047;-24
2023/04/26 11:16:11;;;;;;;3.10;0.50;;;16.30;59.50;;;;;;10570144;28;20423;-24
2023/04/26 11:21:16;;;;;;;3.05;0.38;;;17.20;63.80;;;;;;10566503;28;20450;-24
2023/04/26 11:26:18;;;;;;;1.27;0.60;;;16.90;69.20;;;;;;10573173;28;20050;-24
2023/04/26 11:31:20;;;;;;;0.60;0.50;;;15.80;70.60;;;;;;10547150;28;20474;-24
2023/04/26 11:36:24;;;;;;;1.80;0.80;;;18.00;59.90;;;;;;10568811;28;20050;-24
2023/04/26 11:41:26;;;;;;;2.50;1.10;;;17.80;64.00;;;;;;10570122;28;20055;-23
2023/04/26 11:46:27;;;;;;;1.25;0.68;;;19.40;57.50;;;;;;10563768;28;20491;-24
2023/04/26 11:51:32;;;;;;;3.70;1.35;;;18.30;61.30;;;;;;10560711;28;20075;-24
2023/04/26 11:56:34;;;;;;;1.77;1.10;;;19.60;56.90;;;;;;10552771;28;20052;-24
2023/04/26 12:01:36;;;;;;;2.80;0.80;;;17.90;62.60;;;;;;10561042;28;20135;-25
2023/04/26 12:06:44;;;;;;;2.72;1.25;;;16.40;48.30;;;;;;10562037;28;20051;-23
2023/04/26 12:11:48;;;;;;;1.60;0.77;;;15.00;70.90;;;;;;10566155;28;20385;-23
2023/04/26 12:16:50;;;;;;;3.03;1.17;;;16.40;58.10;;;;;;10561533;28;20165;-23
2023/04/26 12:21:54;;;;;;;2.40;0.85;;;19.00;60.00;;;;;;10564055;28;20441;-24
2023/04/26 12:26:56;;;;;;;1.48;0.73;;;18.20;61.00;;;;;;10564445;28;20173;-24
2023/04/26 12:31:59;;;;;;;3.65;0.90;;;18.50;61.20;;;;;;10549034;28;20539;-24
2023/04/26 12:37:03;;;;;;;1.83;1.10;;;17.10;49.60;;;;;;10554386;28;20048;-24
2023/04/26 12:42:05;;;;;;;7.13;1.48;;;17.70;65.20;;;;;;10556181;28;20051;-24
2023/04/26 12:47:07;;;;;;;1.27;1.00;;;18.70;49.20;;;;;;10556847;28;20093;-24
2023/04/26 12:52:10;;;;;;;1.88;0.90;;;17.40;58.80;;;;;;10557967;28;20055;-23
2023/04/26 12:57:13;;;;;;;3.00;1.40;;;17.80;53.90;;;;;;10555624;28;20044;-24
2023/04/26 13:02:15;;;;;;;3.30;1.52;;;18.70;62.90;;;;;;10579037;28;20074;-24
2023/04/26 13:07:18;;;;;;;4.88;1.50;;;18.60;54.40;;;;;;10574676;28;20079;-24
2023/04/26 13:12:20;;;;;;;5.38;1.10;;;18.40;63.30;;;;;;10564122;28;20104;-24
2023/04/26 13:17:24;;;;;;;2.33;1.42;;;17.40;53.10;;;;;;10575371;28;20040;-24
2023/04/26 13:22:27;;;;;;;4.13;1.17;;;19.10;60.80;;;;;;10554723;28;20048;-24
2023/04/26 13:27:29;;;;;;;5.45;0.90;;;19.60;56.60;;;;;;10557855;28;20402;-25
2023/04/26 13:32:31;;;;;;;2.67;0.90;;;20.10;52.50;;;;;;10567328;28;20155;-24
2023/04/26 13:37:35;;;;;;;5.63;1.60;;;18.70;58.90;;;;;;10573776;28;20056;-25
2023/04/26 13:42:37;;;;;;;2.78;0.80;;;18.10;56.20;;;;;;10560915;28;20104;-24
2023/04/26 13:47:38;;;;;;;2.28;0.80;;;18.10;51.70;;;;;;10566264;28;20066;-24
2023/04/26 13:52:42;;;;;;;2.47;0.80;;;19.40;49.90;;;;;;10573634;28;20539;-25
2023/04/26 13:57:43;;;;;;;1.40;0.95;;;19.10;60.00;;;;;;10571124;28;20078;-27
2023/04/26 14:02:45;;;;;;;2.50;0.93;;;20.60;56.40;;;;;;10575093;28;20066;-25
2023/04/26 14:07:49;;;;;;;1.83;1.10;;;20.60;57.00;;;;;;10572253;28;20065;-24
2023/04/26 14:12:51;;;;;;;5.30;0.63;;;20.70;55.10;;;;;;10571931;28;20070;-24
2023/04/26 14:17:52;;;;;;;3.50;0.90;;;20.50;55.10;;;;;;10568052;28;20072;-25
2023/04/26 14:22:56;;;;;;;4.90;0.68;;;20.80;54.80;;;;;;10557099;28;20128;-24
2023/04/26 14:27:57;;;;;;;5.68;0.77;;;21.50;52.80;;;;;;10571711;28;20142;-23
2023/04/26 14:32:59;;;;;;;2.70;0.90;;;19.80;54.80;;;;;;10574213;28;20453;-24
2023/04/26 14:38:02;;;;;;;2.25;0.90;;;18.40;58.50;;;;;;10572701;28;20503;-26
2023/04/26 14:43:04;;;;;;;2.22;1.05;;;19.20;58.80;;;;;;10571442;28;20510;-26
2023/04/26 14:48:06;;;;;;;1.95;0.90;;;19.50;54.90;;;;;;10553028;28;20142;-26
2023/04/26 14:53:09;;;;;;;2.45;0.93;;;20.80;56.10;;;;;;10561748;28;20048;-26
2023/04/26 14:58:11;;;;;;;2.05;0.98;;;18.90;55.20;;;;;;10547076;28;20055;-25
2023/04/26 15:03:13;;;;;;;2.38;0.90;;;21.10;56.60;;;;;;10546227;28;20056;-23
2023/04/26 15:08:16;;;;;;;4.20;1.35;;;20.90;56.50;;;;;;10545558;28;20641;-24
2023/04/26 15:13:18;;;;;;;3.78;1.08;;;21.30;57.20;;;;;;10563506;28;20127;-24
2023/04/26 15:18:20;;;;;;;3.53;1.23;;;19.60;45.40;;;;;;10555646;28;20123;-24
2023/04/26 15:23:23;;;;;;;4.82;1.45;;;21.50;56.20;;;;;;10560836;28;20079;-24
2023/04/26 15:28:25;;;;;;;2.22;0.93;;;22.00;49.10;;;;;;10533852;28;20083;-24
2023/04/26 15:33:29;;;;;;;3.10;0.98;;;22.40;52.90;;;;;;10557196;28;20052;-25
2023/04/26 15:38:34;;;;;;;1.50;0.90;;;22.20;53.00;;;;;;10564770;28;20671;-26
2023/04/26 15:43:36;;;;;;;1.42;0.80;;;21.50;51.20;;;;;;10561828;28;20100;-25
2023/04/26 15:48:37;;;;;;;;;;;20.90;55.70;;;;;;10565289;28;20083;-24
2023/04/26 15:53:42;;;;;;;3.08;1.50;;;22.10;53.70;;;;;;10562928;28;20352;-24
2023/04/26 15:58:44;;;;;;;2.60;1.15;;;22.10;56.40;;;;;;10559984;28;20051;-23
2023/04/26 16:03:47;;;;;;;2.13;0.90;;;22.30;56.10;;;;;;10567669;28;20473;-25
2023/04/26 16:08:50;;;;;;;2.35;0.80;;;20.90;48.00;;;;;;10567008;28;20058;-24
2023/04/26 16:13:52;;;;;;;2.78;1.25;;;22.30;52.00;;;;;;10562836;28;20040;-25
2023/04/26 16:18:54;;;;;;;1.13;0.63;;;22.50;55.20;;;;;;10566897;28;20449;-24
2023/04/26 16:23:59;;;;;;;2.38;0.73;;;23.00;51.50;;;;;;10561393;28;20039;-25
2023/04/26 16:29:00;;;;;;;8.60;1.10;;;22.60;51.80;;;;;;10555009;28;20522;-25
2023/04/26 16:34:02;;;;;;;2.22;0.75;;;22.40;51.50;;;;;;10564817;28;20100;-24
2023/04/26 16:39:06;;;;;;;1.73;0.90;;;22.10;50.80;;;;;;10557746;28;20044;-24
2023/04/26 16:44:08;;;;;;;3.00;0.80;;;21.40;50.70;;;;;;10562438;28;20067;-24
2023/04/26 16:49:10;;;;;;;1.67;0.40;;;22.70;51.30;;;;;;10572378;28;20051;-24
2023/04/26 16:54:13;;;;;;;4.03;0.88;;;22.80;50.80;;;;;;10573868;28;20070;-24
2023/04/26 16:59:15;;;;;;;3.22;0.80;;;22.00;52.40;;;;;;10562033;28;20050;-25
2023/04/26 17:04:17;;;;;;;5.07;0.75;;;22.20;53.70;;;;;;10557886;28;20078;-25
2023/04/26 17:09:20;;;;;;;0.90;0.70;;;22.20;53.00;;;;;;10562184;28;20407;-25
2023/04/26 17:14:22;;;;;;;1.77;0.63;;;22.60;55.30;;;;;;10565875;28;20040;-24
2023/04/26 17:19:24;;;;;;;0.93;0.75;;;22.70;54.60;;;;;;10567768;28;20126;-24
2023/04/26 17:24:27;;;;;;;3.55;1.15;;;22.40;55.50;;;;;;10574371;28;20047;-25
2023/04/26 17:29:29;;;;;;;1.30;0.80;;;22.40;56.50;;;;;;10567186;28;21814;-23
2023/04/26 17:34:31;;;;;;;5.22;1.10;;;22.20;52.30;;;;;;10546269;28;20074;-24
2023/04/26 17:39:35;;;;;;;2.95;1.00;;;22.00;51.10;;;;;;10567661;28;20043;-24
2023/04/26 17:44:37;;;;;;;2.03;1.10;;;22.30;56.70;;;;;;10568540;28;20381;-24
2023/04/26 17:49:39;;;;;;;;;;;22.00;57.40;;;;;;10560967;28;20051;-23
2023/04/26 17:54:42;;;;;;;3.07;1.20;;;22.30;56.20;;;;;;10560782;28;19980;-26
2023/04/26 17:59:44;;;;;;;2.58;1.20;;;22.50;57.10;;;;;;10562008;28;20130;-25
2023/04/26 18:04:46;;;;;;;4.53;1.15;;;22.60;53.20;;;;;;10555436;28;20078;-27
2023/04/26 18:09:49;;;;;;;2.65;1.45;;;22.70;54.50;;;;;;10560824;28;20039;-24
2023/04/26 18:14:53;;;;;;;3.22;1.05;;;22.40;56.10;;;;;;10551277;28;20150;-23
2023/04/26 18:19:55;;;;;;;2.88;1.70;;;21.10;56.00;;;;;;10560359;28;20055;-25
2023/04/26 18:24:58;;;;;;;;;;;22.30;55.80;;;;;;10560380;28;20058;-25
2023/04/26 18:30:00;;;;;;;1.58;1.17;;;22.90;56.40;;;;;;10559813;28;20010;-25
2023/04/26 18:35:05;;;;;;;3.72;1.50;;;23.10;56.10;;;;;;10565555;28;20047;-23
2023/04/26 18:40:09;;;;;;;2.85;1.55;;;23.20;55.80;;;;;;10559061;28;20043;-23
2023/04/26 18:45:12;;;;;;;5.18;1.65;;;23.00;54.60;;;;;;10547288;28;20079;-24
2023/04/26 18:50:14;;;;;;;3.28;1.90;;;22.50;54.80;;;;;;10566146;28;20043;-23
2023/04/26 18:55:17;;;;;;;3.15;1.98;;;22.70;54.80;;;;;;10562160;28;20126;-23
2023/04/26 19:00:20;;;;;;;4.18;1.80;;;22.70;54.30;;;;;;10552241;28;20071;-22
2023/04/26 19:05:22;;;;;;;4.18;2.58;;;23.10;54.50;;;;;;10561153;28;20046;-24
2023/04/26 19:10:25;;;;;;;4.45;2.90;;;23.20;53.90;;;;;;10541739;28;20092;-25
2023/04/26 19:15:27;;;;;;;4.85;2.38;;;23.00;53.00;;;;;;10561020;28;20054;-25
2023/04/26 19:20:29;;;;;;;1.00;0.80;;;23.00;52.30;;;;;;10568394;28;20101;-24
2023/04/26 19:25:32;;;;;;;3.60;1.08;;;22.90;52.20;;;;;;10548471;28;20044;-24
2023/04/26 19:30:35;;;;;;;1.95;0.68;;;22.80;52.40;;;;;;10554309;28;20145;-23
2023/04/26 19:35:37;;;;;;;2.90;1.10;;;22.80;52.60;;;;;;10557426;28;20210;-22
2023/04/26 19:40:41;;;;;;;1.52;0.70;;;22.70;52.30;;;;;;10554473;28;20146;-24
2023/04/26 19:45:43;;;;;;;2.35;0.98;;;22.60;52.40;;;;;;10555122;28;20158;-23
2023/04/26 19:50:47;;;;;;;1.40;0.80;;;22.60;52.40;;;;;;10545207;28;20048;-23
2023/04/26 19:55:50;;;;;;;2.17;0.82;;;22.60;52.40;;;;;;10557711;28;20048;-22
2023/04/26 20:00:51;;;;;;;3.42;1.08;;;22.50;52.50;;;;;;10565298;28;20514;-24
2023/04/26 20:05:53;;;;;;;6.05;1.98;;;22.40;52.60;;;;;;10552571;28;20123;-24
2023/04/26 20:10:56;;;;;;;4.63;1.58;;;22.40;52.60;;;;;;10560581;28;20053;-23
2023/04/26 20:15:58;;;;;;;2.60;0.93;;;22.40;52.60;;;;;;10560004;28;20068;-24
2023/04/26 20:21:00;;;;;;;1.98;0.80;;;22.40;52.70;;;;;;10537224;28;20080;-24
2023/04/26 20:26:03;;;;;;;8.48;1.20;;;22.30;52.80;;;;;;10545132;28;20047;-24
2023/04/26 20:31:06;;;;;;;4.07;0.95;;;22.30;52.80;;;;;;10558410;28;20146;-22
2023/04/26 20:36:07;;;;;;;9.55;3.40;;;22.20;52.90;;;;;;10560663;28;20442;-23
2023/04/26 20:41:10;;;;;;;6.82;3.65;;;22.20;52.90;;;;;;10559228;28;20108;-24
2023/04/26 20:46:12;;;;;;;9.93;4.05;;;22.20;53.00;;;;;;10555556;28;20050;-22
2023/04/26 20:51:14;;;;;;;12.25;3.17;;;22.10;53.00;;;;;;10557036;28;20051;-23
2023/04/26 20:56:18;;;;;;;11.65;5.05;;;22.10;53.20;;;;;;10563509;28;20040;-23
2023/04/26 21:01:19;;;;;;;10.95;5.65;;;22.10;53.30;;;;;;10558231;28;20043;-25
2023/04/26 21:06:21;;;;;;;12.40;6.57;;;22.00;53.20;;;;;;10561755;28;20078;-24
2023/04/26 21:11:25;;;;;;;11.30;5.03;;;22.00;53.30;;;;;;10548770;28;20044;-23
2023/04/26 21:16:26;;;;;;;10.70;5.53;;;21.90;53.40;;;;;;10567476;28;20071;-23
2023/04/26 21:21:28;;;;;;;14.40;6.93;;;21.80;53.60;;;;;;10569479;28;20047;-24
2023/04/26 21:26:31;;;;;;;13.50;7.38;;;21.80;53.60;;;;;;10561171;28;20071;-24
2023/04/26 21:31:33;;;;;;;16.50;7.30;;;21.80;53.80;;;;;;10563102;28;20116;-24
2023/04/26 21:36:36;;;;;;;13.35;7.38;;;21.70;53.80;;;;;;10569864;28;20097;-24
2023/04/26 21:41:39;;;;;;;14.85;8.25;;;21.60;53.70;;;;;;10566287;28;20130;-23
2023/04/26 21:46:41;;;;;;;14.32;7.32;;;21.60;54.50;;;;;;10554070;27;20128;-24
2023/04/26 21:51:43;;;;;;;16.63;8.13;;;21.60;54.00;;;;;;10575776;28;20067;-25
2023/04/26 21:56:46;;;;;;;14.57;7.43;;;21.50;53.90;;;;;;10573624;28;20537;-24
2023/04/26 22:01:48;;;;;;;15.77;7.47;;;21.50;53.90;;;;;;10576468;28;20602;-24
2023/04/26 22:06:50;;;;;;;16.27;8.20;;;21.40;54.10;;;;;;10572761;28;20134;-24
2023/04/26 22:11:53;;;;;;;14.48;7.78;;;21.40;54.10;;;;;;10570092;28;20540;-24
2023/04/26 22:16:55;;;;;;;15.70;7.97;;;21.40;54.20;;;;;;10573229;28;20094;-23
2023/04/26 22:21:57;;;;;;;13.50;7.07;;;21.30;54.20;;;;;;10558934;28;20190;-24
2023/04/26 22:27:01;;;;;;;12.95;6.30;;;21.30;54.20;;;;;;10564935;28;20400;-24
2023/04/26 22:32:02;;;;;;;11.35;6.43;;;21.20;54.30;;;;;;10563750;28;20544;-24
2023/04/26 22:37:04;;;;;;;11.40;6.25;;;21.10;54.30;;;;;;10558650;28;20071;-22
2023/04/26 22:42:08;;;;;;;14.38;5.68;;;21.10;54.40;;;;;;10557066;28;20127;-24
2023/04/26 22:47:09;;;;;;;10.13;6.25;;;21.10;54.40;;;;;;10556745;28;20101;-24
2023/04/26 22:52:11;;;;;;;14.90;6.65;;;21.00;54.50;;;;;;10572757;28;20063;-24
2023/04/26 22:57:15;;;;;;;13.60;6.53;;;21.00;54.50;;;;;;10569749;28;20491;-24
2023/04/26 23:02:17;;;;;;;9.75;5.60;;;21.00;54.60;;;;;;10564365;28;20036;-23
2023/04/26 23:07:19;;;;;;;10.13;5.35;;;20.90;55.10;;;;;;10562407;28;20051;-23
2023/04/26 23:12:22;;;;;;;12.35;5.78;;;20.90;54.60;;;;;;10561132;28;20075;-24
2023/04/26 23:17:25;;;;;;;12.07;5.45;;;20.90;54.70;;;;;;10558997;28;20086;-23
2023/04/26 23:22:27;;;;;;;9.48;5.80;;;20.90;54.70;;;;;;10555188;28;20510;-22
2023/04/26 23:27:30;;;;;;;10.02;5.93;;;20.80;54.70;;;;;;10542558;28;20043;-22
2023/04/26 23:32:32;;;;;;;11.98;6.13;;;20.80;54.70;;;;;;10539053;28;20048;-23
2023/04/26 23:37:34;;;;;;;11.20;6.30;;;20.80;54.80;;;;;;10549495;28;20050;-23
2023/04/26 23:42:37;;;;;;;7.97;4.90;;;20.70;54.80;;;;;;10551952;28;20419;-24
2023/04/26 23:47:39;;;;;;;10.20;5.25;;;20.70;54.90;;;;;;10567137;28;20055;-22
2023/04/26 23:52:41;;;;;;;13.73;6.15;;;20.60;54.70;;;;;;10570798;28;20078;-24
2023/04/26 23:57:44;;;;;;;8.18;5.30;;;20.60;54.90;;;;;;10557681;28;20063;-23
